Wawota, Canada
Current Conditions -  °F | °C
As of 11:00 PM on Friday 19 Dec 2014 (Local Time) from CYEN Reporting Station
Moderate Fog Moderate Fog  
Wind Chill: 19°   Ceiling: Unl
Heat Index: 19°   Visibility: 0.25mi
Dew Point: 18°   Wind: 2mph
Humidity: 93%   Direction: 170°S
Pressure: 29.92"   Gusts: NA
Location:  49.9°N, 102.02°W
Report Text: CYEN 200500Z 17002KT 1/4SM FZFG VV000 M07/M08 A2992 RMK FG8SLP168
Loading
Personal Weather Stations






























Interactive Weather Map New forecast layout! Learn more

10-Day Weather Forecast

Advertisements
Track Severe Weather on mobile